Time;durP1;ratioP1;P1;durP2;ratioP2;P2;SDS_P1;SDS_P2;PMS_P1;PMS_P2;Temp;Humidity;BMP_temperature;BMP_pressure;BME280_temperature;BME280_humidity;BME280_pressure;Samples;Min_cycle;Max_cycle;Signal;HPM_P1;HPM_P2
2022/05/13 04:01:55;;;;;;;6.63;1.77;;;9.90;96.30;;;;;;5293999;23;20500;-78
2022/05/13 04:04:22;;;;;;;5.63;2.03;;;10.00;96.30;;;;;;4974653;28;20418;-77
2022/05/13 04:09:33;;;;;;;3.00;1.60;;;10.40;96.30;;;;;;4969231;28;20450;-78
2022/05/13 04:17:26;;;;;;;4.10;2.00;;;13.40;96.30;;;;;;4954928;29;20450;-75
2022/05/13 04:19:52;;;;;;;4.20;1.80;;;14.10;96.30;;;;;;4955022;29;20414;-78
2022/05/13 04:22:17;;;;;;;6.43;1.83;;;14.70;96.30;;;;;;4954724;29;20206;-78
2022/05/13 04:24:43;;;;;;;4.60;1.80;;;15.40;96.30;;;;;;4937734;29;20203;-77
2022/05/13 04:27:08;;;;;;;2.17;1.70;;;15.70;96.30;;;;;;4938065;29;20191;-77
2022/05/13 04:29:36;;;;;;;4.70;1.70;;;16.70;96.30;;;;;;4936844;29;20180;-77
2022/05/13 04:32:01;;;;;;;2.73;1.90;;;17.60;96.30;;;;;;4937264;29;20195;-77
2022/05/13 04:34:28;;;;;;;4.07;1.90;;;17.70;96.30;;;;;;4933658;29;20474;-78
2022/05/13 04:36:54;;;;;;;5.43;1.60;;;18.20;96.30;;;;;;4954499;29;20173;-76
2022/05/13 04:39:19;;;;;;;4.60;1.67;;;18.90;95.10;;;;;;4950153;28;20497;-75
2022/05/13 04:44:29;;;;;;;3.23;1.93;;;20.00;90.80;;;;;;4954498;29;20664;-77
2022/05/13 04:46:54;;;;;;;3.53;1.80;;;20.00;91.20;;;;;;4954505;29;20419;-76
2022/05/13 04:49:20;;;;;;;2.87;1.80;;;20.80;88.10;;;;;;4936608;29;20274;-76
2022/05/13 04:51:46;;;;;;;2.87;1.60;;;21.30;86.00;;;;;;4954445;29;20574;-77
2022/05/13 04:54:11;;;;;;;6.20;3.60;;;21.00;87.60;;;;;;4953874;29;20739;-76
2022/05/13 04:56:37;;;;;;;8.37;3.33;;;21.00;87.90;;;;;;4953710;29;20663;-76
2022/05/13 04:59:03;;;;;;;5.20;2.70;;;21.60;85.10;;;;;;4944532;29;20179;-76
2022/05/13 05:01:29;;;;;;;7.63;1.90;;;22.20;84.00;;;;;;4937607;29;20766;-76
2022/05/13 05:03:55;;;;;;;3.70;1.67;;;21.90;83.90;;;;;;4935189;29;20423;-76
2022/05/13 05:06:21;;;;;;;7.23;1.87;;;22.30;83.30;;;;;;4935310;29;20425;-75
2022/05/13 05:08:47;;;;;;;3.40;2.00;;;21.90;84.20;;;;;;4934682;29;20234;-76
2022/05/13 05:11:14;;;;;;;3.83;2.13;;;22.20;82.10;;;;;;4934941;29;20533;-76
2022/05/13 05:13:46;;;;;;;2.57;1.53;;;22.60;83.50;;;;;;4934519;29;20812;-77
2022/05/13 05:16:12;;;;;;;3.73;1.90;;;22.80;83.40;;;;;;4917865;29;20418;-77
2022/05/13 05:18:39;;;;;;;4.77;1.50;;;22.80;82.10;;;;;;4917272;29;20489;-77
2022/05/13 05:21:05;;;;;;;10.53;1.60;;;22.10;82.90;;;;;;4934729;29;20618;-77
2022/05/13 05:23:33;;;;;;;3.27;1.77;;;21.90;81.60;;;;;;4934529;29;20547;-75
2022/05/13 05:25:59;;;;;;;2.63;1.53;;;21.10;82.40;;;;;;4934664;29;20427;-77
2022/05/13 05:28:26;;;;;;;4.70;1.90;;;20.10;88.40;;;;;;4934232;29;20429;-77
2022/05/13 05:30:52;;;;;;;3.97;1.43;;;20.50;86.80;;;;;;4917262;29;20465;-76
2022/05/13 05:33:18;;;;;;;6.93;1.43;;;21.10;85.60;;;;;;4934773;29;20415;-76
2022/05/13 05:35:44;;;;;;;4.07;1.67;;;21.40;83.80;;;;;;4934660;29;20492;-76
2022/05/13 05:38:09;;;;;;;2.73;1.80;;;22.30;82.80;;;;;;4934060;29;20171;-75
2022/05/13 05:40:37;;;;;;;11.10;1.90;;;22.80;80.50;;;;;;4934339;29;20254;-76
2022/05/13 05:43:08;;;;;;;1.80;1.53;;;22.70;80.40;;;;;;4934260;29;20179;-76
2022/05/13 05:45:36;;;;;;;3.37;1.83;;;21.90;82.50;;;;;;4934564;29;20447;-76
2022/05/13 05:48:01;;;;;;;3.37;1.40;;;22.10;81.30;;;;;;4933917;29;20407;-75
2022/05/13 05:50:27;;;;;;;4.30;1.93;;;22.00;81.60;;;;;;4934500;29;20506;-77
2022/05/13 05:52:53;;;;;;;2.57;1.30;;;23.20;80.20;;;;;;4939872;29;20190;-73
2022/05/13 05:58:06;;;;;;;4.03;1.83;;;22.60;80.00;;;;;;4938340;29;20189;-74
2022/05/13 08:21:08;;;;;;;4.73;2.00;;;25.40;70.90;;;;;;5030763;23;20492;-75
2022/05/13 08:23:34;;;;;;;3.87;1.87;;;25.60;72.50;;;;;;4962728;28;20450;-74
2022/05/13 08:26:00;;;;;;;5.93;2.17;;;26.10;70.00;;;;;;4950678;29;20929;-76
2022/05/13 08:28:26;;;;;;;4.40;1.67;;;25.80;68.90;;;;;;4949415;29;20418;-76
2022/05/13 08:30:52;;;;;;;2.60;1.40;;;26.10;68.40;;;;;;4954607;29;20213;-75
2022/05/13 08:33:18;;;;;;;6.43;1.83;;;25.90;70.80;;;;;;4954550;29;20414;-75
2022/05/13 08:35:46;;;;;;;11.87;2.50;;;25.30;69.90;;;;;;4954723;29;20508;-75
2022/05/13 08:38:13;;;;;;;3.77;1.60;;;25.00;71.90;;;;;;4937325;29;20843;-75
2022/05/13 08:41:01;;;;;;;7.10;2.17;;;25.10;70.40;;;;;;4954483;29;20925;-75
2022/05/13 08:43:35;;;;;;;4.70;1.80;;;25.40;70.70;;;;;;4954643;29;20407;-75
2022/05/13 08:46:16;;;;;;;7.73;2.40;;;25.50;70.40;;;;;;4954253;29;20414;-75
2022/05/13 08:48:52;;;;;;;6.23;2.03;;;25.30;71.10;;;;;;4953942;29;20409;-75
2022/05/13 08:51:20;;;;;;;7.00;2.47;;;25.40;72.70;;;;;;4950439;29;20437;-76
2022/05/13 08:53:56;;;;;;;7.90;2.30;;;24.50;69.10;;;;;;4954038;29;20485;-76
2022/05/13 08:56:26;;;;;;;5.23;1.73;;;24.40;70.40;;;;;;4954072;29;20410;-76
2022/05/13 08:59:00;;;;;;;4.33;2.10;;;24.30;72.20;;;;;;4952874;29;20917;-72
2022/05/13 09:01:39;;;;;;;4.63;2.33;;;24.70;75.50;;;;;;4953748;29;20468;-75
2022/05/13 09:04:09;;;;;;;6.43;2.00;;;25.20;72.00;;;;;;4954237;29;20965;-75
2022/05/13 09:06:51;;;;;;;6.03;1.90;;;25.30;72.90;;;;;;4954400;29;20932;-76
2022/05/13 09:09:17;;;;;;;5.73;2.30;;;25.40;68.20;;;;;;4953953;29;20435;-74
2022/05/13 09:12:19;;;;;;;5.20;2.47;;;25.50;72.40;;;;;;4953697;29;20508;-72
2022/05/13 09:14:46;;;;;;;3.87;2.20;;;25.30;69.40;;;;;;4953942;29;20689;-72
2022/05/13 09:17:32;;;;;;;7.57;2.40;;;25.50;72.50;;;;;;4953838;29;20469;-72
2022/05/13 09:19:59;;;;;;;13.80;2.50;;;23.50;73.00;;;;;;4953638;29;20574;-72
2022/05/13 09:22:33;;;;;;;7.20;2.40;;;22.20;74.80;;;;;;4936565;29;20517;-72
2022/05/13 09:24:59;;;;;;;6.70;1.80;;;22.60;77.80;;;;;;4953615;29;20431;-72
2022/05/13 09:27:24;;;;;;;5.40;1.80;;;23.50;73.80;;;;;;4953292;28;20775;-74
2022/05/13 09:29:50;;;;;;;9.47;2.50;;;23.70;73.80;;;;;;4953812;29;20647;-75
2022/05/13 09:32:28;;;;;;;3.13;1.50;;;24.10;75.40;;;;;;4953995;29;20284;-72
2022/05/13 09:35:05;;;;;;;3.80;1.63;;;23.30;72.30;;;;;;4953686;29;20559;-73
2022/05/13 09:37:38;;;;;;;4.70;2.13;;;23.00;76.40;;;;;;4953609;29;20420;-75
2022/05/13 09:40:23;;;;;;;4.70;1.77;;;24.20;77.50;;;;;;4953733;29;20429;-75
2022/05/13 09:42:51;;;;;;;5.63;1.83;;;23.40;74.40;;;;;;4953604;29;20477;-75
2022/05/13 09:45:28;;;;;;;4.87;1.90;;;22.90;73.20;;;;;;4953686;29;20913;-75
2022/05/13 09:48:16;;;;;;;5.03;2.10;;;23.00;75.10;;;;;;4953425;29;20414;-75
2022/05/13 09:50:45;;;;;;;2.70;1.93;;;22.50;74.20;;;;;;4953496;29;20513;-75
2022/05/13 09:53:23;;;;;;;3.33;1.63;;;21.70;77.30;;;;;;4953633;29;20422;-75
2022/05/13 09:55:51;;;;;;;9.67;2.00;;;22.20;76.50;;;;;;4953620;29;20462;-75
2022/05/13 09:58:19;;;;;;;6.47;1.70;;;22.40;78.30;;;;;;4953423;29;20418;-75
2022/05/13 10:00:49;;;;;;;5.00;2.23;;;23.10;77.40;;;;;;4953416;29;20449;-75
2022/05/13 10:03:24;;;;;;;6.50;2.67;;;23.40;76.40;;;;;;4953664;29;20941;-75
2022/05/13 10:06:19;;;;;;;6.57;1.80;;;23.70;76.10;;;;;;4953570;29;20437;-75
2022/05/13 10:08:54;;;;;;;8.67;2.37;;;23.80;76.10;;;;;;4953347;29;21050;-75
2022/05/13 10:14:30;;;;;;;3.73;1.80;;;23.80;75.00;;;;;;4953597;29;20468;-75
2022/05/13 10:17:02;;;;;;;4.67;1.40;;;24.20;74.90;;;;;;4953427;29;20421;-75
2022/05/13 10:19:30;;;;;;;13.90;2.17;;;24.80;73.50;;;;;;4952870;29;20537;-75
2022/05/13 10:22:20;;;;;;;5.60;2.17;;;24.90;71.30;;;;;;4936046;29;20541;-75
2022/05/13 10:24:57;;;;;;;7.10;2.03;;;24.10;71.10;;;;;;4953592;29;20588;-75
2022/05/13 10:27:36;;;;;;;7.87;1.70;;;23.70;73.60;;;;;;4944396;28;20425;-72
2022/05/13 10:30:10;;;;;;;5.10;1.80;;;24.20;70.80;;;;;;4948764;29;20429;-73
2022/05/13 10:32:44;;;;;;;2.87;1.50;;;24.60;74.20;;;;;;4953083;29;20471;-73
2022/05/13 10:35:16;;;;;;;4.60;1.70;;;25.10;73.60;;;;;;4953070;29;20461;-74
2022/05/13 10:37:54;;;;;;;7.90;1.63;;;24.40;67.90;;;;;;4953150;28;21112;-72
2022/05/13 10:40:20;;;;;;;8.30;1.60;;;24.80;72.00;;;;;;4956658;29;20498;-72
2022/05/13 10:43:11;;;;;;;3.73;1.63;;;24.90;71.70;;;;;;4950606;28;20543;-74
2022/05/13 10:45:39;;;;;;;4.30;1.80;;;24.90;72.70;;;;;;4938791;29;20980;-72
2022/05/13 10:48:18;;;;;;;4.00;1.67;;;24.50;72.60;;;;;;4955528;29;20415;-72
2022/05/13 10:51:09;;;;;;;5.73;2.07;;;25.40;67.70;;;;;;4931350;29;20505;-73
2022/05/13 10:54:24;;;;;;;8.83;1.40;;;25.60;72.00;;;;;;4937111;29;20454;-76
2022/05/13 10:57:09;;;;;;;3.50;1.90;;;25.30;72.80;;;;;;4882184;29;20496;-73
2022/05/13 10:59:56;;;;;;;3.30;1.50;;;25.70;68.20;;;;;;4878003;29;20895;-73
2022/05/13 11:03:04;;;;;;;6.30;1.63;;;25.30;70.70;;;;;;4925546;29;20985;-73
2022/05/13 11:05:53;;;;;;;8.63;1.43;;;25.50;69.80;;;;;;4929140;29;20419;-73
2022/05/13 11:08:47;;;;;;;8.17;2.23;;;24.50;74.60;;;;;;4945764;29;20411;-73
2022/05/13 11:11:13;;;;;;;7.67;1.70;;;;;;;;;;4914436;29;20450;-75
2022/05/13 11:14:13;;;;;;;8.80;1.90;;;24.30;72.60;;;;;;4936960;29;20419;-72
2022/05/13 11:17:17;;;;;;;6.20;1.70;;;24.10;72.80;;;;;;4936849;29;20193;-72
2022/05/13 11:19:43;;;;;;;8.00;1.63;;;23.80;69.50;;;;;;4909229;29;20804;-72
2022/05/13 11:22:19;;;;;;;12.50;1.67;;;24.30;72.70;;;;;;4956147;29;20430;-72
2022/05/13 11:27:50;;;;;;;3.03;1.20;;;25.00;70.60;;;;;;4955093;29;20484;-75
2022/05/13 11:30:24;;;;;;;5.53;1.70;;;25.20;66.70;;;;;;4938773;29;20453;-75
2022/05/13 11:33:02;;;;;;;4.07;1.30;;;24.40;66.60;;;;;;4956363;29;20936;-73
2022/05/13 11:35:31;;;;;;;6.87;1.10;;;24.90;72.10;;;;;;4955777;29;20469;-73
2022/05/13 11:38:04;;;;;;;6.57;1.30;;;24.70;70.70;;;;;;4955390;29;20418;-75
2022/05/13 11:40:50;;;;;;;3.87;1.43;;;23.60;70.40;;;;;;4955726;29;20496;-75
2022/05/13 11:43:27;;;;;;;3.53;1.13;;;22.50;72.30;;;;;;4938240;29;20429;-75
2022/05/13 11:46:01;;;;;;;3.07;0.93;;;21.60;74.50;;;;;;4956032;29;20410;-73
2022/05/13 11:48:41;;;;;;;5.63;1.30;;;22.30;71.30;;;;;;4955014;28;20509;-73
2022/05/13 11:51:18;;;;;;;9.70;1.50;;;21.50;72.30;;;;;;4955634;29;20430;-73
2022/05/13 11:54:20;;;;;;;2.23;1.20;;;21.10;76.20;;;;;;4957676;29;20430;-75
2022/05/13 11:56:46;;;;;;;1.67;0.97;;;21.20;77.80;;;;;;4958016;29;20417;-74
2022/05/13 11:59:27;;;;;;;11.10;1.60;;;21.70;73.50;;;;;;4957212;29;20441;-75
2022/05/13 12:02:07;;;;;;;10.63;1.30;;;22.60;70.80;;;;;;4956797;29;20437;-74
2022/05/13 12:04:36;;;;;;;4.43;1.60;;;23.30;71.50;;;;;;4957113;29;20423;-75
2022/05/13 12:07:30;;;;;;;3.60;1.10;;;23.50;69.50;;;;;;4956847;29;20423;-76
2022/05/13 12:09:58;;;;;;;7.50;1.20;;;23.60;71.60;;;;;;4956799;29;20877;-75
2022/05/13 12:12:50;;;;;;;3.60;1.80;;;23.90;70.00;;;;;;4956581;29;20438;-74
2022/05/13 12:15:48;;;;;;;5.30;1.20;;;23.10;69.20;;;;;;4957273;29;20483;-74
2022/05/13 12:18:33;;;;;;;6.30;1.43;;;23.50;70.40;;;;;;4923180;29;20414;-74
2022/05/13 12:21:28;;;;;;;6.73;1.30;;;23.90;68.80;;;;;;4955660;29;20454;-72
2022/05/13 12:23:57;;;;;;;1.90;1.10;;;23.00;69.10;;;;;;4955041;29;20465;-74
2022/05/13 12:26:44;;;;;;;6.80;1.40;;;23.30;71.10;;;;;;4955027;29;20417;-75
2022/05/13 12:29:38;;;;;;;9.80;1.40;;;23.30;70.00;;;;;;4954438;29;20429;-75
2022/05/13 12:32:04;;;;;;;6.30;1.60;;;23.70;71.70;;;;;;4954840;29;20431;-75
2022/05/13 12:37:42;;;;;;;3.70;1.20;;;22.80;71.70;;;;;;4955659;29;20464;-74
2022/05/13 12:40:27;;;;;;;3.93;1.30;;;22.10;74.30;;;;;;4957017;29;20441;-73
2022/05/13 12:43:19;;;;;;;2.70;1.60;;;21.70;75.30;;;;;;4955125;29;20469;-74
2022/05/13 12:46:03;;;;;;;6.50;1.30;;;22.50;74.80;;;;;;4954065;29;20458;-74
2022/05/13 12:48:28;;;;;;;3.83;1.30;;;22.20;70.60;;;;;;4954299;29;20418;-74
2022/05/13 12:51:18;;;;;;;5.10;1.20;;;21.30;75.10;;;;;;4954466;29;20461;-72
2022/05/13 12:53:49;;;;;;;9.23;1.60;;;22.40;73.00;;;;;;4954439;29;20651;-73
2022/05/13 12:56:28;;;;;;;6.43;2.60;;;22.70;73.40;;;;;;4954421;29;20446;-73
2022/05/13 12:59:11;;;;;;;8.30;1.47;;;22.80;74.10;;;;;;4954213;29;20462;-73
2022/05/13 13:01:42;;;;;;;13.10;1.33;;;21.60;74.30;;;;;;4953599;28;20457;-73
2022/05/13 13:04:09;;;;;;;9.03;2.30;;;21.70;76.60;;;;;;4954432;29;20426;-73
2022/05/13 13:06:39;;;;;;;10.20;1.60;;;21.30;79.90;;;;;;4954309;29;20926;-73
2022/05/13 13:09:07;;;;;;;5.40;1.67;;;21.20;76.50;;;;;;4953974;29;21058;-73
2022/05/13 13:11:43;;;;;;;18.87;2.93;;;21.30;76.90;;;;;;4954155;29;20431;-73
2022/05/13 13:14:33;;;;;;;6.67;1.80;;;20.90;78.50;;;;;;4954220;29;20470;-73
2022/05/13 13:17:04;;;;;;;13.40;2.67;;;20.80;76.80;;;;;;4954516;29;20406;-74
2022/05/13 13:19:30;;;;;;;5.27;1.47;;;20.60;77.80;;;;;;4955195;29;20445;-74
2022/05/13 13:22:30;;;;;;;17.33;1.80;;;20.80;80.70;;;;;;4954813;29;20426;-74
2022/05/13 13:24:56;;;;;;;9.50;2.40;;;;;;;;;;4954143;29;20445;-74
2022/05/13 13:27:26;;;;;;;16.43;1.50;;;20.90;78.20;;;;;;4954026;29;20435;-74
2022/05/13 13:29:51;;;;;;;6.20;1.60;;;20.80;75.80;;;;;;4953954;29;20201;-74
2022/05/13 13:32:19;;;;;;;5.17;1.90;;;20.70;75.70;;;;;;4954021;29;20903;-74
2022/05/13 13:35:00;;;;;;;5.60;1.20;;;20.30;78.20;;;;;;4953989;29;20209;-74
2022/05/13 13:37:31;;;;;;;10.43;1.73;;;20.30;77.60;;;;;;4954014;29;20489;-74
2022/05/13 13:40:16;;;;;;;8.00;1.60;;;20.40;76.90;;;;;;4953924;29;20406;-75
2022/05/13 13:42:41;;;;;;;7.40;1.33;;;20.30;75.60;;;;;;4954030;29;20415;-75
2022/05/13 13:45:18;;;;;;;7.80;2.27;;;20.20;77.40;;;;;;4953765;29;20407;-75
2022/05/13 13:47:47;;;;;;;15.50;1.37;;;19.90;77.50;;;;;;4953919;29;20185;-75
2022/05/13 13:50:29;;;;;;;3.90;1.27;;;19.90;75.90;;;;;;4936446;29;20427;-74
2022/05/13 13:52:55;;;;;;;8.43;1.43;;;20.00;77.20;;;;;;4953639;29;20419;-75
2022/05/13 13:55:24;;;;;;;9.50;1.27;;;20.00;75.80;;;;;;4953601;29;20524;-74
2022/05/13 13:58:18;;;;;;;3.30;1.03;;;19.50;75.20;;;;;;4953504;29;20411;-74
2022/05/13 14:00:46;;;;;;;4.30;1.33;;;19.60;77.20;;;;;;4936307;29;20812;-75
2022/05/13 14:03:16;;;;;;;5.60;1.27;;;19.80;78.40;;;;;;4953591;29;20445;-75
2022/05/13 14:06:01;;;;;;;15.37;1.93;;;19.90;76.60;;;;;;4953568;29;20417;-75
2022/05/13 14:08:31;;;;;;;3.00;1.20;;;19.90;75.70;;;;;;4953428;29;20410;-73
2022/05/13 14:10:59;;;;;;;7.50;1.63;;;19.70;78.10;;;;;;4953535;29;20433;-71
2022/05/13 14:13:37;;;;;;;12.77;2.10;;;20.10;75.90;;;;;;4956400;28;20418;-72
2022/05/13 14:16:15;;;;;;;6.20;1.70;;;19.40;76.50;;;;;;4957339;29;20602;-71
2022/05/13 14:18:42;;;;;;;10.67;1.40;;;19.10;76.70;;;;;;4949510;28;20791;-72
2022/05/13 14:21:12;;;;;;;4.27;1.70;;;19.50;76.40;;;;;;4946959;29;20450;-71
2022/05/13 14:23:38;;;;;;;2.67;1.00;;;19.50;75.60;;;;;;4949183;29;20411;-74
2022/05/13 14:26:07;;;;;;;5.57;1.53;;;19.30;76.60;;;;;;4941187;29;20466;-74
2022/05/13 14:28:42;;;;;;;8.33;1.87;;;19.20;78.10;;;;;;4936241;29;20415;-71
2022/05/13 14:31:11;;;;;;;6.13;1.50;;;19.50;77.30;;;;;;4936769;29;20422;-73
2022/05/13 14:33:39;;;;;;;3.70;1.43;;;19.60;76.80;;;;;;4936952;29;20538;-71
2022/05/13 14:36:09;;;;;;;7.57;1.93;;;19.20;77.60;;;;;;4936917;29;20958;-71
2022/05/13 14:41:51;;;;;;;9.80;1.70;;;18.70;77.00;;;;;;4936960;29;20474;-71
2022/05/13 14:44:26;;;;;;;4.87;1.50;;;18.70;78.20;;;;;;4936640;29;20435;-72
2022/05/13 14:47:04;;;;;;;4.50;1.50;;;19.00;78.50;;;;;;4936643;29;20454;-71
2022/05/13 14:49:37;;;;;;;5.17;1.33;;;19.00;77.40;;;;;;4935545;29;20446;-71
2022/05/13 14:52:04;;;;;;;8.20;1.93;;;18.70;78.30;;;;;;4936719;29;20447;-71
2022/05/13 14:54:30;;;;;;;7.27;1.87;;;18.80;79.60;;;;;;4936591;29;20647;-71
2022/05/13 14:57:02;;;;;;;6.00;1.73;;;18.90;78.70;;;;;;4936442;29;20422;-71
2022/05/13 14:59:40;;;;;;;5.10;1.70;;;18.70;77.80;;;;;;4936207;29;20645;-71
2022/05/13 15:02:11;;;;;;;3.93;1.37;;;18.70;78.20;;;;;;4936414;29;20427;-71
2022/05/13 15:04:55;;;;;;;4.33;1.40;;;18.70;79.40;;;;;;4936516;29;20455;-72
2022/05/13 15:07:37;;;;;;;1.93;1.13;;;18.40;78.10;;;;;;4936746;29;20408;-72
2022/05/13 15:10:08;;;;;;;9.93;1.30;;;18.20;79.70;;;;;;4943130;29;21087;-72
2022/05/13 15:12:33;;;;;;;3.97;1.43;;;18.30;79.90;;;;;;4955551;29;20531;-72
2022/05/13 15:14:59;;;;;;;6.43;1.60;;;18.10;78.00;;;;;;4955979;29;20473;-71
2022/05/13 15:17:25;;;;;;;4.67;1.60;;;17.80;78.60;;;;;;4956228;29;20187;-76
2022/05/13 15:19:51;;;;;;;2.10;1.33;;;17.80;79.20;;;;;;4921799;29;994919;-72
2022/05/13 15:22:20;;;;;;;2.93;1.33;;;17.60;79.50;;;;;;4939469;29;20442;-72
2022/05/13 15:24:47;;;;;;;8.10;1.80;;;17.60;79.60;;;;;;4956171;28;20203;-72
2022/05/13 15:27:20;;;;;;;6.70;1.60;;;17.50;79.10;;;;;;4956629;28;20953;-71
2022/05/13 15:29:47;;;;;;;6.33;1.30;;;17.50;80.50;;;;;;4956476;29;20417;-71
2022/05/13 15:32:15;;;;;;;8.50;1.53;;;17.50;81.50;;;;;;4952024;29;20499;-72
2022/05/13 15:34:41;;;;;;;6.90;1.60;;;17.40;81.60;;;;;;4952977;29;20517;-71
2022/05/13 15:37:08;;;;;;;9.37;1.67;;;17.40;81.60;;;;;;4956309;29;20418;-72
2022/05/13 15:39:34;;;;;;;11.63;1.60;;;17.60;81.50;;;;;;4955824;29;20193;-71
2022/05/13 15:42:03;;;;;;;4.47;1.40;;;17.60;83.80;;;;;;4956214;29;20657;-74
2022/05/13 15:44:29;;;;;;;8.73;1.70;;;17.20;81.90;;;;;;4956481;29;20426;-72
2022/05/13 15:46:56;;;;;;;8.33;1.43;;;16.80;83.70;;;;;;4956191;29;20435;-72
2022/05/13 15:54:51;;;;;;;7.47;1.43;;;;;;;;;;4960773;28;20482;-79
2022/05/13 15:57:19;;;;;;;8.20;1.93;;;16.90;85.00;;;;;;4951767;29;20403;-72
2022/05/13 15:59:45;;;;;;;5.27;1.40;;;16.90;86.30;;;;;;4946081;29;20187;-72
2022/05/13 16:02:11;;;;;;;4.60;1.43;;;;;;;;;;4955873;29;20430;-72
2022/05/13 16:04:36;;;;;;;14.73;2.40;;;17.00;83.50;;;;;;4945356;29;20177;-72
2022/05/13 16:07:02;;;;;;;3.20;1.27;;;16.30;84.30;;;;;;4944416;29;20651;-72
2022/05/13 16:09:28;;;;;;;6.83;1.37;;;16.30;86.10;;;;;;4947723;29;20175;-71
2022/05/13 16:11:57;;;;;;;7.20;1.70;;;16.20;84.70;;;;;;4941305;29;20959;-71
2022/05/13 16:14:23;;;;;;;5.70;1.70;;;;;;;;;;4942702;29;20693;-71
2022/05/13 16:16:56;;;;;;;3.17;1.90;;;16.40;83.50;;;;;;4955774;29;20482;-71
2022/05/13 16:19:24;;;;;;;3.90;1.60;;;16.20;83.50;;;;;;4955042;29;20249;-71
2022/05/13 16:21:52;;;;;;;35.50;3.57;;;16.00;84.90;;;;;;4955078;29;20434;-71
2022/05/13 16:24:26;;;;;;;11.83;1.57;;;15.80;84.90;;;;;;4955108;29;20481;-71
2022/05/13 16:26:52;;;;;;;2.30;1.20;;;15.80;86.60;;;;;;4942580;29;20490;-71
2022/05/13 16:29:18;;;;;;;8.23;1.57;;;15.90;84.80;;;;;;4935686;29;20448;-72
2022/05/13 16:31:44;;;;;;;7.30;1.17;;;;;;;;;;4935646;29;20963;-74
2022/05/13 16:34:10;;;;;;;3.63;1.23;;;15.70;85.20;;;;;;4935676;29;20570;-71
2022/05/13 16:37:41;;;;;;;2.93;1.17;;;15.70;86.40;;;;;;4935681;29;20702;-71
2022/05/13 16:39:22;;;;;;;5.93;1.43;;;15.80;85.30;;;;;;4935216;29;20207;-71
2022/05/13 16:41:47;;;;;;;3.83;1.20;;;16.00;83.90;;;;;;4935465;29;20461;-74
2022/05/13 16:44:14;;;;;;;3.37;1.20;;;15.90;85.10;;;;;;4935353;29;20187;-74
2022/05/13 16:46:40;;;;;;;6.80;1.30;;;15.80;84.60;;;;;;4918364;29;20588;-74
2022/05/13 16:49:05;;;;;;;7.13;1.30;;;15.70;83.40;;;;;;4935254;29;20462;-74
2022/05/13 16:51:31;;;;;;;4.70;1.27;;;15.60;84.40;;;;;;4935355;29;20223;-74
2022/05/13 16:53:56;;;;;;;4.17;1.40;;;15.40;84.60;;;;;;4942590;28;20542;-74
2022/05/13 16:56:22;;;;;;;3.03;1.40;;;15.40;84.40;;;;;;4973695;28;20179;-74
2022/05/13 16:58:48;;;;;;;5.43;1.37;;;15.20;85.70;;;;;;4973459;28;20589;-74
2022/05/13 17:01:13;;;;;;;2.77;1.17;;;15.20;84.80;;;;;;4950313;28;20434;-74
2022/05/13 17:03:40;;;;;;;4.90;1.20;;;15.20;85.40;;;;;;4937827;29;20184;-74
2022/05/13 17:06:07;;;;;;;2.23;1.07;;;15.20;86.80;;;;;;4925912;29;20183;-74
2022/05/13 17:16:48;;;;;;;4.13;1.87;;;15.20;86.50;;;;;;4935066;29;20378;-75
2022/05/13 17:19:16;;;;;;;4.47;0.80;;;15.00;86.90;;;;;;4934523;29;21198;-75
2022/05/13 17:21:48;;;;;;;3.20;1.10;;;14.80;86.60;;;;;;4949292;29;20525;-75
2022/05/13 17:24:25;;;;;;;1.97;1.23;;;14.80;86.00;;;;;;4954261;29;20395;-75
2022/05/13 17:26:59;;;;;;;3.03;0.93;;;14.60;86.60;;;;;;4953943;29;20402;-75
2022/05/13 17:29:24;;;;;;;2.77;0.90;;;14.50;87.30;;;;;;4949887;29;20407;-74
2022/05/13 17:31:51;;;;;;;4.13;1.30;;;14.40;87.20;;;;;;4954048;29;20441;-74
2022/05/13 17:34:16;;;;;;;4.47;0.80;;;14.40;86.60;;;;;;4954000;29;20194;-74
2022/05/13 17:36:42;;;;;;;5.67;2.20;;;14.30;87.50;;;;;;4948216;29;20419;-75
2022/05/13 17:39:07;;;;;;;2.40;1.00;;;14.20;87.40;;;;;;4953836;29;20530;-75
2022/05/13 17:41:34;;;;;;;1.63;0.80;;;14.20;88.80;;;;;;4953925;29;20206;-75
2022/05/13 17:43:59;;;;;;;3.83;0.90;;;14.10;88.20;;;;;;4953912;29;20175;-78
2022/05/13 17:46:25;;;;;;;5.27;0.90;;;14.00;88.70;;;;;;4936690;28;20939;-75
2022/05/13 17:48:50;;;;;;;2.50;0.97;;;14.00;88.50;;;;;;4957448;29;20543;-75
2022/05/13 17:51:16;;;;;;;2.93;0.90;;;13.90;88.40;;;;;;4957788;29;20238;-74
2022/05/13 17:53:43;;;;;;;2.23;0.90;;;13.80;89.90;;;;;;4958363;29;20171;-75
2022/05/13 17:56:09;;;;;;;3.00;1.30;;;13.70;89.60;;;;;;4957958;29;20793;-75
2022/05/13 17:58:36;;;;;;;1.77;0.83;;;13.70;90.40;;;;;;4957738;29;20410;-74
2022/05/13 18:01:02;;;;;;;12.33;1.00;;;13.70;90.50;;;;;;4957743;29;20441;-74
2022/05/13 18:03:30;;;;;;;5.50;0.90;;;13.50;90.60;;;;;;4957548;29;20414;-75
2022/05/13 18:05:55;;;;;;;3.27;1.10;;;13.50;91.50;;;;;;4957713;29;20186;-75
2022/05/13 18:08:21;;;;;;;7.70;1.20;;;13.50;91.90;;;;;;4957175;29;20422;-75
2022/05/13 18:10:46;;;;;;;4.10;1.00;;;13.40;92.20;;;;;;4957390;29;20199;-75
2022/05/13 18:13:12;;;;;;;1.73;0.97;;;13.30;91.50;;;;;;4957262;29;20253;-75
2022/05/13 18:15:38;;;;;;;4.97;1.50;;;13.20;93.60;;;;;;4929790;29;20298;-75
2022/05/13 18:58:44;;;;;;;2.03;1.17;;;12.10;96.30;;;;;;5704356;23;20476;-73
2022/05/13 19:01:10;;;;;;;6.10;1.13;;;12.00;96.30;;;;;;4994998;28;20460;-76
2022/05/13 19:03:36;;;;;;;3.97;1.00;;;12.00;96.30;;;;;;4995221;28;20192;-76
2022/05/13 19:06:04;;;;;;;6.17;1.80;;;11.90;96.30;;;;;;4995168;28;20174;-77
2022/05/13 19:08:32;;;;;;;5.07;1.67;;;11.80;96.30;;;;;;4994835;28;20400;-74
2022/05/13 19:10:57;;;;;;;3.47;1.20;;;11.60;96.30;;;;;;4995053;28;20431;-75
2022/05/13 19:13:23;;;;;;;4.70;1.73;;;11.40;96.30;;;;;;4985031;28;20513;-75
2022/05/13 19:15:52;;;;;;;2.03;1.00;;;11.30;96.30;;;;;;4976153;28;20194;-74
2022/05/13 19:18:21;;;;;;;1.90;0.90;;;11.10;96.30;;;;;;4975735;28;20425;-74
2022/05/13 19:20:48;;;;;;;5.33;1.00;;;11.00;96.30;;;;;;4975800;28;20814;-74
2022/05/13 19:23:13;;;;;;;2.80;1.20;;;10.90;96.30;;;;;;4958559;28;20416;-74
2022/05/13 19:25:39;;;;;;;5.13;1.13;;;11.00;96.30;;;;;;4975950;28;20414;-75
2022/05/13 19:28:07;;;;;;;5.03;1.70;;;11.10;96.30;;;;;;4975182;28;20531;-75
2022/05/13 19:30:33;;;;;;;3.27;1.00;;;11.10;96.30;;;;;;4962563;28;20646;-75
2022/05/13 19:32:59;;;;;;;3.87;1.30;;;11.10;96.30;;;;;;4963350;28;20478;-75
2022/05/13 19:35:24;;;;;;;3.23;1.20;;;11.00;96.30;;;;;;4991767;28;20460;-74
2022/05/13 19:37:50;;;;;;;2.60;1.10;;;10.70;96.30;;;;;;4995239;28;20173;-74
2022/05/13 19:40:18;;;;;;;3.13;1.23;;;10.50;96.30;;;;;;4978542;28;20177;-76
2022/05/13 19:42:44;;;;;;;3.77;1.70;;;10.30;96.30;;;;;;4975297;28;20551;-75
2022/05/13 19:45:17;;;;;;;11.13;1.60;;;10.10;96.30;;;;;;4958045;28;20782;-75
2022/05/13 19:47:44;;;;;;;4.23;1.10;;;10.00;96.30;;;;;;4975090;28;20989;-74
2022/05/13 19:50:11;;;;;;;2.03;1.20;;;10.00;96.30;;;;;;4958051;28;20493;-76
2022/05/13 19:52:36;;;;;;;5.43;0.90;;;10.00;96.30;;;;;;4958021;28;20438;-74
2022/05/13 19:55:03;;;;;;;4.60;1.07;;;9.80;96.30;;;;;;4976031;28;20592;-76
2022/05/13 19:57:29;;;;;;;5.50;1.10;;;9.80;96.30;;;;;;4981328;28;20227;-74
2022/05/13 19:59:54;;;;;;;4.47;1.20;;;9.80;96.30;;;;;;4957517;28;20461;-77
2022/05/13 20:02:20;;;;;;;5.23;1.23;;;9.90;96.30;;;;;;4987271;28;20739;-75
2022/05/13 20:12:59;;;;;;;4.90;1.37;;;9.50;96.30;;;;;;4994149;28;20987;-76
2022/05/13 20:15:25;;;;;;;14.03;1.27;;;9.50;96.30;;;;;;4994081;28;20531;-75
2022/05/13 20:17:50;;;;;;;5.57;1.20;;;9.50;96.30;;;;;;4993734;28;20193;-75
2022/05/13 20:23:00;;;;;;;4.00;1.57;;;9.40;96.30;;;;;;4994240;28;20235;-74
2022/05/13 20:25:26;;;;;;;4.17;1.90;;;9.50;96.30;;;;;;4994188;28;20417;-75
2022/05/13 20:27:51;;;;;;;9.93;1.80;;;9.70;96.30;;;;;;4977064;28;20184;-76
2022/05/13 20:30:17;;;;;;;7.07;3.83;;;9.70;96.30;;;;;;4991561;28;20182;-76
2022/05/13 20:32:43;;;;;;;42.53;17.87;;;9.50;96.30;;;;;;4993513;28;20174;-75
2022/05/13 20:35:09;;;;;;;20.40;10.53;;;9.40;96.30;;;;;;4993411;28;20669;-75
2022/05/13 20:37:35;;;;;;;9.40;3.73;;;9.40;96.30;;;;;;4975856;28;20167;-75
2022/05/13 20:40:01;;;;;;;7.20;4.10;;;9.30;96.30;;;;;;4973674;28;20437;-75
2022/05/13 20:42:26;;;;;;;5.63;2.70;;;9.40;96.30;;;;;;4973629;28;20222;-75
2022/05/13 20:44:52;;;;;;;4.83;2.10;;;9.40;96.30;;;;;;4973929;28;20296;-75
2022/05/13 20:47:19;;;;;;;3.13;1.60;;;9.30;96.30;;;;;;4973791;28;20185;-75
2022/05/13 20:49:45;;;;;;;5.03;1.60;;;9.30;96.30;;;;;;4973595;28;20170;-75
2022/05/13 20:52:11;;;;;;;3.17;1.60;;;9.30;96.30;;;;;;4974798;28;20445;-75
2022/05/13 20:54:37;;;;;;;4.23;2.40;;;9.10;96.30;;;;;;4965980;28;20461;-75
2022/05/13 20:57:03;;;;;;;2.50;1.40;;;9.00;96.30;;;;;;4970624;28;20261;-76
2022/05/13 20:59:29;;;;;;;7.27;3.70;;;8.90;96.30;;;;;;4956246;28;20220;-76
2022/05/13 21:01:54;;;;;;;8.77;4.17;;;8.80;96.30;;;;;;4973580;28;20186;-76